sensor_id;sensor_type;location;lat;lon;timestamp;P1;durP1;ratioP1;P2;durP2;ratioP2
10232;SDS011;5161;48.174;11.756;2023-04-06T00:00:50;11.43;;;9.30;;
10232;SDS011;5161;48.174;11.756;2023-04-06T00:03:16;10.47;;;9.23;;
10232;SDS011;5161;48.174;11.756;2023-04-06T00:05:41;11.50;;;9.47;;
10232;SDS011;5161;48.174;11.756;2023-04-06T00:08:07;12.20;;;9.87;;
10232;SDS011;5161;48.174;11.756;2023-04-06T00:10:33;11.83;;;9.90;;
10232;SDS011;5161;48.174;11.756;2023-04-06T00:12:58;11.50;;;9.63;;
10232;SDS011;5161;48.174;11.756;2023-04-06T00:15:24;12.80;;;9.80;;
10232;SDS011;5161;48.174;11.756;2023-04-06T00:17:51;13.03;;;9.93;;
10232;SDS011;5161;48.174;11.756;2023-04-06T00:20:16;11.17;;;9.40;;
10232;SDS011;5161;48.174;11.756;2023-04-06T00:22:43;10.53;;;8.90;;
10232;SDS011;5161;48.174;11.756;2023-04-06T00:25:09;10.67;;;9.40;;
10232;SDS011;5161;48.174;11.756;2023-04-06T00:27:36;11.87;;;9.60;;
10232;SDS011;5161;48.174;11.756;2023-04-06T00:30:02;13.37;;;9.40;;
10232;SDS011;5161;48.174;11.756;2023-04-06T00:32:31;11.10;;;9.17;;
10232;SDS011;5161;48.174;11.756;2023-04-06T00:34:57;11.03;;;9.17;;
10232;SDS011;5161;48.174;11.756;2023-04-06T00:37:23;9.43;;;8.43;;
10232;SDS011;5161;48.174;11.756;2023-04-06T00:39:49;9.37;;;8.47;;
10232;SDS011;5161;48.174;11.756;2023-04-06T00:42:16;9.70;;;8.70;;
10232;SDS011;5161;48.174;11.756;2023-04-06T00:44:43;9.87;;;8.93;;
10232;SDS011;5161;48.174;11.756;2023-04-06T00:47:09;10.87;;;8.70;;
10232;SDS011;5161;48.174;11.756;2023-04-06T00:49:34;9.93;;;8.93;;
10232;SDS011;5161;48.174;11.756;2023-04-06T00:52:00;11.23;;;8.67;;
10232;SDS011;5161;48.174;11.756;2023-04-06T00:54:29;9.83;;;8.60;;
10232;SDS011;5161;48.174;11.756;2023-04-06T00:56:55;11.87;;;8.53;;
10232;SDS011;5161;48.174;11.756;2023-04-06T00:59:21;10.67;;;8.57;;
10232;SDS011;5161;48.174;11.756;2023-04-06T01:01:47;9.73;;;8.40;;
10232;SDS011;5161;48.174;11.756;2023-04-06T01:04:13;11.60;;;8.90;;
10232;SDS011;5161;48.174;11.756;2023-04-06T01:06:39;11.37;;;9.13;;
10232;SDS011;5161;48.174;11.756;2023-04-06T01:09:05;10.63;;;8.90;;
10232;SDS011;5161;48.174;11.756;2023-04-06T01:11:31;9.73;;;8.53;;
10232;SDS011;5161;48.174;11.756;2023-04-06T01:13:57;10.80;;;8.83;;
10232;SDS011;5161;48.174;11.756;2023-04-06T01:16:23;9.43;;;8.17;;
10232;SDS011;5161;48.174;11.756;2023-04-06T01:18:49;13.03;;;8.47;;
10232;SDS011;5161;48.174;11.756;2023-04-06T01:21:15;10.07;;;8.53;;
10232;SDS011;5161;48.174;11.756;2023-04-06T01:23:42;10.27;;;9.00;;
10232;SDS011;5161;48.174;11.756;2023-04-06T01:26:09;11.97;;;9.10;;
10232;SDS011;5161;48.174;11.756;2023-04-06T01:28:35;11.80;;;8.60;;
10232;SDS011;5161;48.174;11.756;2023-04-06T01:31:02;10.90;;;8.77;;
10232;SDS011;5161;48.174;11.756;2023-04-06T01:33:28;10.50;;;8.67;;
10232;SDS011;5161;48.174;11.756;2023-04-06T01:35:53;10.30;;;8.33;;
10232;SDS011;5161;48.174;11.756;2023-04-06T01:38:20;9.93;;;8.60;;
10232;SDS011;5161;48.174;11.756;2023-04-06T01:40:45;11.30;;;9.20;;
10232;SDS011;5161;48.174;11.756;2023-04-06T01:43:11;11.60;;;8.90;;
10232;SDS011;5161;48.174;11.756;2023-04-06T01:45:37;10.30;;;9.20;;
10232;SDS011;5161;48.174;11.756;2023-04-06T01:48:02;10.67;;;9.17;;
10232;SDS011;5161;48.174;11.756;2023-04-06T01:50:28;11.10;;;9.20;;
10232;SDS011;5161;48.174;11.756;2023-04-06T01:52:54;9.67;;;8.40;;
10232;SDS011;5161;48.174;11.756;2023-04-06T01:55:20;10.97;;;9.67;;
10232;SDS011;5161;48.174;11.756;2023-04-06T01:57:45;10.93;;;8.77;;
10232;SDS011;5161;48.174;11.756;2023-04-06T02:00:11;12.30;;;9.87;;
10232;SDS011;5161;48.174;11.756;2023-04-06T02:02:37;11.67;;;9.47;;
10232;SDS011;5161;48.174;11.756;2023-04-06T02:05:03;11.80;;;9.33;;
10232;SDS011;5161;48.174;11.756;2023-04-06T02:07:29;13.43;;;9.57;;
10232;SDS011;5161;48.174;11.756;2023-04-06T02:09:55;12.07;;;9.50;;
10232;SDS011;5161;48.174;11.756;2023-04-06T02:12:21;11.63;;;8.97;;
10232;SDS011;5161;48.174;11.756;2023-04-06T02:14:46;14.13;;;9.43;;
10232;SDS011;5161;48.174;11.756;2023-04-06T02:17:12;11.77;;;9.33;;
10232;SDS011;5161;48.174;11.756;2023-04-06T02:19:37;10.07;;;9.07;;
10232;SDS011;5161;48.174;11.756;2023-04-06T02:22:03;10.67;;;9.37;;
10232;SDS011;5161;48.174;11.756;2023-04-06T02:24:29;10.03;;;9.03;;
10232;SDS011;5161;48.174;11.756;2023-04-06T02:26:54;12.07;;;9.37;;
10232;SDS011;5161;48.174;11.756;2023-04-06T02:29:20;10.77;;;9.03;;
10232;SDS011;5161;48.174;11.756;2023-04-06T02:31:46;12.83;;;9.23;;
10232;SDS011;5161;48.174;11.756;2023-04-06T02:34:11;10.40;;;9.30;;
10232;SDS011;5161;48.174;11.756;2023-04-06T02:36:42;11.57;;;9.17;;
10232;SDS011;5161;48.174;11.756;2023-04-06T02:39:11;10.53;;;8.93;;
10232;SDS011;5161;48.174;11.756;2023-04-06T02:41:37;10.23;;;8.90;;
10232;SDS011;5161;48.174;11.756;2023-04-06T02:44:03;10.17;;;9.10;;
10232;SDS011;5161;48.174;11.756;2023-04-06T02:46:31;11.33;;;9.67;;
10232;SDS011;5161;48.174;11.756;2023-04-06T02:48:56;10.90;;;9.03;;
10232;SDS011;5161;48.174;11.756;2023-04-06T02:51:25;10.93;;;9.50;;
10232;SDS011;5161;48.174;11.756;2023-04-06T02:53:51;10.00;;;8.93;;
10232;SDS011;5161;48.174;11.756;2023-04-06T02:56:16;10.80;;;9.20;;
10232;SDS011;5161;48.174;11.756;2023-04-06T02:58:42;10.87;;;9.23;;
10232;SDS011;5161;48.174;11.756;2023-04-06T03:01:08;10.03;;;9.00;;
10232;SDS011;5161;48.174;11.756;2023-04-06T03:03:33;10.40;;;9.30;;
10232;SDS011;5161;48.174;11.756;2023-04-06T03:05:59;12.53;;;8.90;;
10232;SDS011;5161;48.174;11.756;2023-04-06T03:08:25;11.23;;;9.17;;
10232;SDS011;5161;48.174;11.756;2023-04-06T03:10:50;9.77;;;8.47;;
10232;SDS011;5161;48.174;11.756;2023-04-06T03:13:16;10.63;;;9.30;;
10232;SDS011;5161;48.174;11.756;2023-04-06T03:15:42;11.37;;;9.23;;
10232;SDS011;5161;48.174;11.756;2023-04-06T03:18:07;12.00;;;8.77;;
10232;SDS011;5161;48.174;11.756;2023-04-06T03:20:33;10.93;;;9.13;;
10232;SDS011;5161;48.174;11.756;2023-04-06T03:22:58;11.27;;;9.53;;
10232;SDS011;5161;48.174;11.756;2023-04-06T03:25:24;10.27;;;9.13;;
10232;SDS011;5161;48.174;11.756;2023-04-06T03:27:50;11.70;;;9.23;;
10232;SDS011;5161;48.174;11.756;2023-04-06T03:30:15;12.43;;;9.57;;
10232;SDS011;5161;48.174;11.756;2023-04-06T03:32:43;11.07;;;9.80;;
10232;SDS011;5161;48.174;11.756;2023-04-06T03:35:09;13.07;;;9.50;;
10232;SDS011;5161;48.174;11.756;2023-04-06T03:37:35;11.87;;;9.13;;
10232;SDS011;5161;48.174;11.756;2023-04-06T03:40:01;11.17;;;9.17;;
10232;SDS011;5161;48.174;11.756;2023-04-06T03:42:26;12.37;;;9.37;;
10232;SDS011;5161;48.174;11.756;2023-04-06T03:44:52;12.13;;;9.20;;
10232;SDS011;5161;48.174;11.756;2023-04-06T03:47:17;10.23;;;8.97;;
10232;SDS011;5161;48.174;11.756;2023-04-06T03:49:43;14.13;;;9.90;;
10232;SDS011;5161;48.174;11.756;2023-04-06T03:52:09;12.00;;;9.27;;
10232;SDS011;5161;48.174;11.756;2023-04-06T03:54:34;10.63;;;9.13;;
10232;SDS011;5161;48.174;11.756;2023-04-06T03:57:01;9.93;;;8.93;;
10232;SDS011;5161;48.174;11.756;2023-04-06T03:59:26;12.07;;;9.33;;
10232;SDS011;5161;48.174;11.756;2023-04-06T04:01:52;11.53;;;9.53;;
10232;SDS011;5161;48.174;11.756;2023-04-06T04:04:18;11.53;;;9.23;;
10232;SDS011;5161;48.174;11.756;2023-04-06T04:06:44;13.00;;;9.73;;
10232;SDS011;5161;48.174;11.756;2023-04-06T04:09:10;9.97;;;8.97;;
10232;SDS011;5161;48.174;11.756;2023-04-06T04:11:35;10.73;;;9.07;;
10232;SDS011;5161;48.174;11.756;2023-04-06T04:14:01;12.73;;;9.37;;
10232;SDS011;5161;48.174;11.756;2023-04-06T04:16:27;10.90;;;9.80;;
10232;SDS011;5161;48.174;11.756;2023-04-06T04:18:52;12.70;;;8.97;;
10232;SDS011;5161;48.174;11.756;2023-04-06T04:21:18;10.60;;;9.20;;
10232;SDS011;5161;48.174;11.756;2023-04-06T04:23:43;10.97;;;9.50;;
10232;SDS011;5161;48.174;11.756;2023-04-06T04:26:09;12.40;;;9.33;;
10232;SDS011;5161;48.174;11.756;2023-04-06T04:28:35;15.30;;;9.97;;
10232;SDS011;5161;48.174;11.756;2023-04-06T04:31:01;12.23;;;9.50;;
10232;SDS011;5161;48.174;11.756;2023-04-06T04:33:26;11.53;;;9.60;;
10232;SDS011;5161;48.174;11.756;2023-04-06T04:35:52;12.00;;;9.50;;
10232;SDS011;5161;48.174;11.756;2023-04-06T04:38:17;10.37;;;9.27;;
10232;SDS011;5161;48.174;11.756;2023-04-06T04:40:43;12.07;;;9.00;;
10232;SDS011;5161;48.174;11.756;2023-04-06T04:43:09;12.43;;;9.00;;
10232;SDS011;5161;48.174;11.756;2023-04-06T04:45:34;12.37;;;9.40;;
10232;SDS011;5161;48.174;11.756;2023-04-06T04:48:00;12.13;;;9.10;;
10232;SDS011;5161;48.174;11.756;2023-04-06T04:50:26;13.30;;;9.07;;
10232;SDS011;5161;48.174;11.756;2023-04-06T04:52:51;12.47;;;9.47;;
10232;SDS011;5161;48.174;11.756;2023-04-06T04:55:17;10.17;;;9.03;;
10232;SDS011;5161;48.174;11.756;2023-04-06T04:57:42;13.37;;;9.63;;
10232;SDS011;5161;48.174;11.756;2023-04-06T05:00:08;12.60;;;9.53;;
10232;SDS011;5161;48.174;11.756;2023-04-06T05:02:34;11.20;;;9.33;;
10232;SDS011;5161;48.174;11.756;2023-04-06T05:05:00;13.03;;;9.27;;
10232;SDS011;5161;48.174;11.756;2023-04-06T05:07:26;12.40;;;9.70;;
10232;SDS011;5161;48.174;11.756;2023-04-06T05:09:51;14.37;;;9.77;;
10232;SDS011;5161;48.174;11.756;2023-04-06T05:12:18;15.20;;;9.47;;
10232;SDS011;5161;48.174;11.756;2023-04-06T05:14:44;17.90;;;10.10;;
10232;SDS011;5161;48.174;11.756;2023-04-06T05:17:10;13.43;;;9.33;;
10232;SDS011;5161;48.174;11.756;2023-04-06T05:19:35;14.57;;;9.93;;
10232;SDS011;5161;48.174;11.756;2023-04-06T05:22:01;15.60;;;10.50;;
10232;SDS011;5161;48.174;11.756;2023-04-06T05:24:27;13.87;;;10.37;;
10232;SDS011;5161;48.174;11.756;2023-04-06T05:26:52;15.23;;;10.07;;
10232;SDS011;5161;48.174;11.756;2023-04-06T05:29:18;16.27;;;10.50;;
10232;SDS011;5161;48.174;11.756;2023-04-06T05:31:45;13.00;;;10.13;;
10232;SDS011;5161;48.174;11.756;2023-04-06T05:34:10;13.60;;;10.70;;
10232;SDS011;5161;48.174;11.756;2023-04-06T05:36:37;15.83;;;10.37;;
10232;SDS011;5161;48.174;11.756;2023-04-06T05:39:03;11.70;;;10.00;;
10232;SDS011;5161;48.174;11.756;2023-04-06T05:41:29;12.47;;;9.80;;
10232;SDS011;5161;48.174;11.756;2023-04-06T05:43:55;16.53;;;10.80;;
10232;SDS011;5161;48.174;11.756;2023-04-06T05:46:20;16.50;;;10.43;;
10232;SDS011;5161;48.174;11.756;2023-04-06T05:48:46;14.10;;;10.43;;
10232;SDS011;5161;48.174;11.756;2023-04-06T05:51:12;12.83;;;10.37;;
10232;SDS011;5161;48.174;11.756;2023-04-06T05:53:37;14.53;;;9.77;;
10232;SDS011;5161;48.174;11.756;2023-04-06T05:56:03;13.90;;;10.63;;
10232;SDS011;5161;48.174;11.756;2023-04-06T05:58:29;21.13;;;10.87;;
10232;SDS011;5161;48.174;11.756;2023-04-06T06:00:58;14.40;;;9.93;;
10232;SDS011;5161;48.174;11.756;2023-04-06T06:03:25;15.33;;;10.50;;
10232;SDS011;5161;48.174;11.756;2023-04-06T06:05:51;14.03;;;10.53;;
10232;SDS011;5161;48.174;11.756;2023-04-06T06:08:16;11.53;;;10.33;;
10232;SDS011;5161;48.174;11.756;2023-04-06T06:10:42;14.03;;;9.97;;
10232;SDS011;5161;48.174;11.756;2023-04-06T06:13:08;12.50;;;10.03;;
10232;SDS011;5161;48.174;11.756;2023-04-06T06:15:34;12.77;;;10.40;;
10232;SDS011;5161;48.174;11.756;2023-04-06T06:18:00;12.30;;;10.10;;
10232;SDS011;5161;48.174;11.756;2023-04-06T06:20:26;14.87;;;9.70;;
10232;SDS011;5161;48.174;11.756;2023-04-06T06:22:52;13.10;;;10.03;;
10232;SDS011;5161;48.174;11.756;2023-04-06T06:25:18;11.03;;;9.60;;
10232;SDS011;5161;48.174;11.756;2023-04-06T06:27:43;10.83;;;9.50;;
10232;SDS011;5161;48.174;11.756;2023-04-06T06:30:09;13.67;;;10.13;;
10232;SDS011;5161;48.174;11.756;2023-04-06T06:32:35;11.70;;;9.70;;
10232;SDS011;5161;48.174;11.756;2023-04-06T06:35:01;11.67;;;9.43;;
10232;SDS011;5161;48.174;11.756;2023-04-06T06:37:27;11.53;;;9.67;;
10232;SDS011;5161;48.174;11.756;2023-04-06T06:39:53;14.33;;;10.20;;
10232;SDS011;5161;48.174;11.756;2023-04-06T06:42:18;11.83;;;9.90;;
10232;SDS011;5161;48.174;11.756;2023-04-06T06:44:44;15.17;;;9.93;;
10232;SDS011;5161;48.174;11.756;2023-04-06T06:47:10;12.37;;;10.00;;
10232;SDS011;5161;48.174;11.756;2023-04-06T06:49:35;13.73;;;10.00;;
10232;SDS011;5161;48.174;11.756;2023-04-06T06:52:01;14.27;;;9.77;;
10232;SDS011;5161;48.174;11.756;2023-04-06T06:54:26;12.97;;;10.03;;
10232;SDS011;5161;48.174;11.756;2023-04-06T06:56:52;14.67;;;9.70;;
10232;SDS011;5161;48.174;11.756;2023-04-06T06:59:19;12.03;;;9.93;;
10232;SDS011;5161;48.174;11.756;2023-04-06T07:01:46;10.73;;;9.63;;
10232;SDS011;5161;48.174;11.756;2023-04-06T07:04:11;13.47;;;9.90;;
10232;SDS011;5161;48.174;11.756;2023-04-06T07:06:37;11.67;;;9.83;;
10232;SDS011;5161;48.174;11.756;2023-04-06T07:09:03;13.93;;;10.40;;
10232;SDS011;5161;48.174;11.756;2023-04-06T07:11:29;11.67;;;9.67;;
10232;SDS011;5161;48.174;11.756;2023-04-06T07:13:55;10.90;;;9.27;;
10232;SDS011;5161;48.174;11.756;2023-04-06T07:16:21;11.23;;;9.67;;
10232;SDS011;5161;48.174;11.756;2023-04-06T07:18:46;13.37;;;9.83;;
10232;SDS011;5161;48.174;11.756;2023-04-06T07:21:12;14.00;;;10.07;;
10232;SDS011;5161;48.174;11.756;2023-04-06T07:23:38;17.50;;;10.73;;
10232;SDS011;5161;48.174;11.756;2023-04-06T07:26:03;14.03;;;9.70;;
10232;SDS011;5161;48.174;11.756;2023-04-06T07:28:29;12.27;;;10.33;;
10232;SDS011;5161;48.174;11.756;2023-04-06T07:30:55;11.10;;;10.00;;
10232;SDS011;5161;48.174;11.756;2023-04-06T07:33:20;13.47;;;10.80;;
10232;SDS011;5161;48.174;11.756;2023-04-06T07:35:46;15.10;;;10.60;;
10232;SDS011;5161;48.174;11.756;2023-04-06T07:38:12;14.60;;;11.00;;
10232;SDS011;5161;48.174;11.756;2023-04-06T07:40:37;14.90;;;10.03;;
10232;SDS011;5161;48.174;11.756;2023-04-06T07:43:03;12.57;;;10.00;;
10232;SDS011;5161;48.174;11.756;2023-04-06T07:45:29;14.07;;;10.13;;
10232;SDS011;5161;48.174;11.756;2023-04-06T07:47:54;12.43;;;10.17;;
10232;SDS011;5161;48.174;11.756;2023-04-06T07:50:20;11.77;;;9.47;;
10232;SDS011;5161;48.174;11.756;2023-04-06T07:52:46;12.10;;;10.33;;
10232;SDS011;5161;48.174;11.756;2023-04-06T07:55:12;12.07;;;10.13;;
10232;SDS011;5161;48.174;11.756;2023-04-06T07:57:37;14.40;;;10.80;;
10232;SDS011;5161;48.174;11.756;2023-04-06T08:00:03;12.20;;;10.43;;
10232;SDS011;5161;48.174;11.756;2023-04-06T08:02:31;11.43;;;10.23;;
10232;SDS011;5161;48.174;11.756;2023-04-06T08:04:56;12.87;;;9.43;;
10232;SDS011;5161;48.174;11.756;2023-04-06T08:07:22;11.53;;;9.07;;
10232;SDS011;5161;48.174;11.756;2023-04-06T08:09:48;11.63;;;9.23;;
10232;SDS011;5161;48.174;11.756;2023-04-06T08:12:14;14.37;;;9.43;;
10232;SDS011;5161;48.174;11.756;2023-04-06T08:14:39;10.63;;;8.37;;
10232;SDS011;5161;48.174;11.756;2023-04-06T08:17:05;9.03;;;8.13;;
10232;SDS011;5161;48.174;11.756;2023-04-06T08:19:31;11.70;;;8.03;;
10232;SDS011;5161;48.174;11.756;2023-04-06T08:21:56;8.37;;;7.33;;
10232;SDS011;5161;48.174;11.756;2023-04-06T08:24:22;9.23;;;7.73;;
10232;SDS011;5161;48.174;11.756;2023-04-06T08:26:49;11.33;;;8.10;;
10232;SDS011;5161;48.174;11.756;2023-04-06T08:29:16;8.60;;;7.70;;
10232;SDS011;5161;48.174;11.756;2023-04-06T08:31:42;9.13;;;7.73;;
10232;SDS011;5161;48.174;11.756;2023-04-06T08:34:07;11.33;;;8.00;;
10232;SDS011;5161;48.174;11.756;2023-04-06T08:36:33;9.87;;;8.33;;
10232;SDS011;5161;48.174;11.756;2023-04-06T08:38:59;9.87;;;8.57;;
10232;SDS011;5161;48.174;11.756;2023-04-06T08:41:27;9.90;;;8.90;;
10232;SDS011;5161;48.174;11.756;2023-04-06T08:43:57;9.90;;;8.80;;
10232;SDS011;5161;48.174;11.756;2023-04-06T08:46:25;9.57;;;8.57;;
10232;SDS011;5161;48.174;11.756;2023-04-06T08:48:54;10.73;;;8.70;;
10232;SDS011;5161;48.174;11.756;2023-04-06T08:51:22;9.73;;;8.43;;
10232;SDS011;5161;48.174;11.756;2023-04-06T08:53:51;9.70;;;8.50;;
10232;SDS011;5161;48.174;11.756;2023-04-06T08:56:19;10.60;;;9.10;;
10232;SDS011;5161;48.174;11.756;2023-04-06T08:58:46;11.13;;;9.27;;
10232;SDS011;5161;48.174;11.756;2023-04-06T09:01:13;9.93;;;8.93;;
10232;SDS011;5161;48.174;11.756;2023-04-06T09:03:42;10.57;;;9.10;;
10232;SDS011;5161;48.174;11.756;2023-04-06T09:06:09;13.97;;;9.20;;
10232;SDS011;5161;48.174;11.756;2023-04-06T09:08:39;10.43;;;9.33;;
10232;SDS011;5161;48.174;11.756;2023-04-06T09:11:08;13.07;;;9.77;;
10232;SDS011;5161;48.174;11.756;2023-04-06T09:13:47;11.20;;;9.73;;
10232;SDS011;5161;48.174;11.756;2023-04-06T09:16:14;10.47;;;9.10;;
10232;SDS011;5161;48.174;11.756;2023-04-06T09:18:40;11.07;;;9.60;;
10232;SDS011;5161;48.174;11.756;2023-04-06T09:21:06;12.70;;;9.37;;
10232;SDS011;5161;48.174;11.756;2023-04-06T09:23:33;13.63;;;10.17;;
10232;SDS011;5161;48.174;11.756;2023-04-06T09:28:42;12.43;;;9.43;;
10232;SDS011;5161;48.174;11.756;2023-04-06T09:31:08;13.93;;;10.23;;
10232;SDS011;5161;48.174;11.756;2023-04-06T09:33:37;11.83;;;10.33;;
10232;SDS011;5161;48.174;11.756;2023-04-06T09:36:05;12.33;;;10.00;;
10232;SDS011;5161;48.174;11.756;2023-04-06T09:38:32;12.67;;;9.80;;
10232;SDS011;5161;48.174;11.756;2023-04-06T09:40:58;12.53;;;10.60;;
10232;SDS011;5161;48.174;11.756;2023-04-06T09:43:29;15.53;;;10.67;;
10232;SDS011;5161;48.174;11.756;2023-04-06T09:45:55;15.13;;;10.10;;
10232;SDS011;5161;48.174;11.756;2023-04-06T09:48:22;11.87;;;10.47;;
10232;SDS011;5161;48.174;11.756;2023-04-06T09:50:50;13.70;;;10.77;;
10232;SDS011;5161;48.174;11.756;2023-04-06T09:53:23;14.13;;;11.37;;
10232;SDS011;5161;48.174;11.756;2023-04-06T09:55:54;13.50;;;11.43;;
10232;SDS011;5161;48.174;11.756;2023-04-06T09:58:26;21.17;;;15.80;;
10232;SDS011;5161;48.174;11.756;2023-04-06T10:01:09;16.00;;;12.13;;
10232;SDS011;5161;48.174;11.756;2023-04-06T10:06:16;12.57;;;10.17;;
10232;SDS011;5161;48.174;11.756;2023-04-06T10:08:46;12.73;;;11.43;;
10232;SDS011;5161;48.174;11.756;2023-04-06T10:11:15;13.07;;;10.93;;
10232;SDS011;5161;48.174;11.756;2023-04-06T10:13:41;11.87;;;10.63;;
10232;SDS011;5161;48.174;11.756;2023-04-06T10:16:07;13.87;;;11.20;;
10232;SDS011;5161;48.174;11.756;2023-04-06T10:18:34;17.00;;;12.00;;
10232;SDS011;5161;48.174;11.756;2023-04-06T10:21:08;16.03;;;11.30;;
10232;SDS011;5161;48.174;11.756;2023-04-06T10:23:41;13.60;;;11.60;;
10232;SDS011;5161;48.174;11.756;2023-04-06T10:26:22;13.20;;;11.80;;
10232;SDS011;5161;48.174;11.756;2023-04-06T10:28:49;13.37;;;11.60;;
10232;SDS011;5161;48.174;11.756;2023-04-06T10:31:23;15.43;;;11.80;;
10232;SDS011;5161;48.174;11.756;2023-04-06T10:33:53;12.73;;;11.30;;
10232;SDS011;5161;48.174;11.756;2023-04-06T10:36:31;12.53;;;11.23;;
10232;SDS011;5161;48.174;11.756;2023-04-06T10:38:59;13.13;;;11.47;;
10232;SDS011;5161;48.174;11.756;2023-04-06T10:41:33;13.90;;;11.47;;
10232;SDS011;5161;48.174;11.756;2023-04-06T10:44:00;15.83;;;11.93;;
10232;SDS011;5161;48.174;11.756;2023-04-06T10:46:27;14.37;;;11.67;;
10232;SDS011;5161;48.174;11.756;2023-04-06T10:48:54;12.80;;;11.33;;
10232;SDS011;5161;48.174;11.756;2023-04-06T10:51:24;15.97;;;11.93;;
10232;SDS011;5161;48.174;11.756;2023-04-06T10:53:55;14.80;;;11.60;;
10232;SDS011;5161;48.174;11.756;2023-04-06T10:56:24;14.37;;;12.33;;
10232;SDS011;5161;48.174;11.756;2023-04-06T10:58:53;14.37;;;12.20;;
10232;SDS011;5161;48.174;11.756;2023-04-06T11:01:21;14.33;;;12.40;;
10232;SDS011;5161;48.174;11.756;2023-04-06T11:03:48;16.03;;;12.00;;
10232;SDS011;5161;48.174;11.756;2023-04-06T11:06:22;13.03;;;11.67;;
10232;SDS011;5161;48.174;11.756;2023-04-06T11:08:50;13.83;;;12.00;;
10232;SDS011;5161;48.174;11.756;2023-04-06T11:11:20;13.53;;;12.13;;
10232;SDS011;5161;48.174;11.756;2023-04-06T11:13:51;14.73;;;11.90;;
10232;SDS011;5161;48.174;11.756;2023-04-06T11:21:36;14.37;;;12.63;;
10232;SDS011;5161;48.174;11.756;2023-04-06T11:24:24;14.17;;;12.33;;
10232;SDS011;5161;48.174;11.756;2023-04-06T11:26:52;14.87;;;12.07;;
10232;SDS011;5161;48.174;11.756;2023-04-06T11:29:22;13.93;;;12.30;;
10232;SDS011;5161;48.174;11.756;2023-04-06T11:31:50;15.27;;;11.90;;
10232;SDS011;5161;48.174;11.756;2023-04-06T11:34:21;16.10;;;12.97;;
10232;SDS011;5161;48.174;11.756;2023-04-06T11:36:48;15.87;;;13.13;;
10232;SDS011;5161;48.174;11.756;2023-04-06T11:39:21;13.73;;;12.20;;
10232;SDS011;5161;48.174;11.756;2023-04-06T11:41:52;14.23;;;12.73;;
10232;SDS011;5161;48.174;11.756;2023-04-06T11:46:58;14.03;;;12.57;;
10232;SDS011;5161;48.174;11.756;2023-04-06T11:49:30;14.00;;;11.93;;
10232;SDS011;5161;48.174;11.756;2023-04-06T11:51:57;15.30;;;12.37;;
10232;SDS011;5161;48.174;11.756;2023-04-06T11:57:00;13.93;;;12.17;;
10232;SDS011;5161;48.174;11.756;2023-04-06T11:59:27;14.20;;;12.00;;
10232;SDS011;5161;48.174;11.756;2023-04-06T12:01:53;17.30;;;13.37;;
10232;SDS011;5161;48.174;11.756;2023-04-06T12:04:19;16.27;;;13.63;;
10232;SDS011;5161;48.174;11.756;2023-04-06T12:06:45;15.83;;;13.33;;
10232;SDS011;5161;48.174;11.756;2023-04-06T12:09:11;15.40;;;13.80;;
10232;SDS011;5161;48.174;11.756;2023-04-06T12:11:37;14.23;;;12.73;;
10232;SDS011;5161;48.174;11.756;2023-04-06T12:14:03;17.03;;;13.20;;
10232;SDS011;5161;48.174;11.756;2023-04-06T12:16:30;13.67;;;12.17;;
10232;SDS011;5161;48.174;11.756;2023-04-06T12:18:56;13.33;;;11.23;;
10232;SDS011;5161;48.174;11.756;2023-04-06T12:21:22;12.47;;;11.17;;
10232;SDS011;5161;48.174;11.756;2023-04-06T12:23:48;14.33;;;12.43;;
10232;SDS011;5161;48.174;11.756;2023-04-06T12:26:13;13.77;;;12.23;;
10232;SDS011;5161;48.174;11.756;2023-04-06T12:28:40;13.07;;;11.73;;
10232;SDS011;5161;48.174;11.756;2023-04-06T12:31:06;14.47;;;11.80;;
10232;SDS011;5161;48.174;11.756;2023-04-06T12:33:31;16.07;;;12.50;;
10232;SDS011;5161;48.174;11.756;2023-04-06T12:35:57;20.60;;;11.87;;
10232;SDS011;5161;48.174;11.756;2023-04-06T12:38:23;16.73;;;13.53;;
10232;SDS011;5161;48.174;11.756;2023-04-06T12:40:48;18.27;;;14.43;;
10232;SDS011;5161;48.174;11.756;2023-04-06T12:43:14;19.67;;;14.37;;
10232;SDS011;5161;48.174;11.756;2023-04-06T12:45:40;19.17;;;13.43;;
10232;SDS011;5161;48.174;11.756;2023-04-06T12:48:06;14.77;;;12.30;;
10232;SDS011;5161;48.174;11.756;2023-04-06T12:50:32;17.73;;;13.73;;
10232;SDS011;5161;48.174;11.756;2023-04-06T12:52:58;14.40;;;12.90;;
10232;SDS011;5161;48.174;11.756;2023-04-06T12:55:23;14.73;;;12.57;;
10232;SDS011;5161;48.174;11.756;2023-04-06T12:57:49;14.27;;;12.43;;
10232;SDS011;5161;48.174;11.756;2023-04-06T13:00:15;13.93;;;11.47;;
10232;SDS011;5161;48.174;11.756;2023-04-06T13:02:41;12.30;;;11.10;;
10232;SDS011;5161;48.174;11.756;2023-04-06T13:05:12;15.80;;;10.77;;
10232;SDS011;5161;48.174;11.756;2023-04-06T13:07:41;12.77;;;11.47;;
10232;SDS011;5161;48.174;11.756;2023-04-06T13:10:07;12.60;;;11.30;;
10232;SDS011;5161;48.174;11.756;2023-04-06T13:12:33;15.87;;;12.07;;
10232;SDS011;5161;48.174;11.756;2023-04-06T13:14:58;14.57;;;13.07;;
10232;SDS011;5161;48.174;11.756;2023-04-06T13:17:26;14.83;;;13.03;;
10232;SDS011;5161;48.174;11.756;2023-04-06T13:19:53;14.37;;;12.80;;
10232;SDS011;5161;48.174;11.756;2023-04-06T13:22:18;14.50;;;13.00;;
10232;SDS011;5161;48.174;11.756;2023-04-06T13:24:44;13.50;;;12.10;;
10232;SDS011;5161;48.174;11.756;2023-04-06T13:27:10;15.20;;;12.17;;
10232;SDS011;5161;48.174;11.756;2023-04-06T13:29:36;15.20;;;13.70;;
10232;SDS011;5161;48.174;11.756;2023-04-06T13:32:02;14.33;;;12.77;;
10232;SDS011;5161;48.174;11.756;2023-04-06T13:34:28;14.13;;;12.73;;
10232;SDS011;5161;48.174;11.756;2023-04-06T13:36:53;15.20;;;12.33;;
10232;SDS011;5161;48.174;11.756;2023-04-06T13:39:19;13.73;;;11.90;;
10232;SDS011;5161;48.174;11.756;2023-04-06T13:41:45;12.60;;;11.30;;
10232;SDS011;5161;48.174;11.756;2023-04-06T13:44:11;12.97;;;11.47;;
10232;SDS011;5161;48.174;11.756;2023-04-06T13:46:36;12.40;;;11.17;;
10232;SDS011;5161;48.174;11.756;2023-04-06T13:49:02;12.60;;;10.93;;
10232;SDS011;5161;48.174;11.756;2023-04-06T13:51:28;10.90;;;9.90;;
10232;SDS011;5161;48.174;11.756;2023-04-06T13:53:53;13.87;;;10.80;;
10232;SDS011;5161;48.174;11.756;2023-04-06T13:56:20;11.40;;;10.30;;
10232;SDS011;5161;48.174;11.756;2023-04-06T13:58:45;11.53;;;10.33;;
10232;SDS011;5161;48.174;11.756;2023-04-06T14:01:12;11.37;;;10.13;;
10232;SDS011;5161;48.174;11.756;2023-04-06T14:03:37;11.37;;;9.43;;
10232;SDS011;5161;48.174;11.756;2023-04-06T14:06:10;9.93;;;9.03;;
10232;SDS011;5161;48.174;11.756;2023-04-06T14:08:37;12.90;;;10.13;;
10232;SDS011;5161;48.174;11.756;2023-04-06T14:11:02;11.43;;;10.23;;
10232;SDS011;5161;48.174;11.756;2023-04-06T14:13:28;10.57;;;9.50;;
10232;SDS011;5161;48.174;11.756;2023-04-06T14:15:54;11.83;;;10.40;;
10232;SDS011;5161;48.174;11.756;2023-04-06T14:18:20;13.33;;;10.70;;
10232;SDS011;5161;48.174;11.756;2023-04-06T14:20:53;11.97;;;10.57;;
10232;SDS011;5161;48.174;11.756;2023-04-06T14:23:23;11.80;;;10.60;;
10232;SDS011;5161;48.174;11.756;2023-04-06T14:26:00;12.80;;;10.63;;
10232;SDS011;5161;48.174;11.756;2023-04-06T14:28:27;11.67;;;10.10;;
10232;SDS011;5161;48.174;11.756;2023-04-06T14:30:53;11.13;;;10.03;;
10232;SDS011;5161;48.174;11.756;2023-04-06T14:33:19;11.50;;;10.27;;
10232;SDS011;5161;48.174;11.756;2023-04-06T14:35:45;12.10;;;10.73;;
10232;SDS011;5161;48.174;11.756;2023-04-06T14:38:10;11.77;;;10.57;;
10232;SDS011;5161;48.174;11.756;2023-04-06T14:40:36;11.47;;;10.37;;